Flight Track Log - Related Links

Times and Time Zones

All times are in EDT time to prevent confusion due to time zone crossing. See the SWA2236 flight status page for this flight to view local times or setup timezone preferences in your user account.

Time Position Orientation Groundspeed Altitude Reporting Facility
EDT Latitude Longitude Course Direction KTS MPH feet Rate Location/Type
Wed 07:06:44 AM 32.8190 -96.8250 135° Southeast 177 204 1,700  Level FlightAware ADS-B
Wed 07:07:04 AM 32.8070 -96.8110 136° Southeast 195 224 2,300 2,087 Climbing FlightAware ADS-B
Wed 07:07:30 AM 32.7880 -96.7910 138° Southeast 216 249 3,300 1,895 Climbing FlightAware ADS-B
Wed 07:07:42 AM 32.7780 -96.7840 150° Southeast 231 266 3,500 2,182 Climbing FlightAware ADS-B
Wed 07:08:14 AM 32.7510 -96.8020 209° Southwest 238 274 4,900 2,800 Climbing FlightAware ADS-B
Wed 07:08:42 AM 32.7370 -96.8370 245° Southwest 244 281 6,300 3,231 Climbing FlightAware ADS-B
Wed 07:09:06 AM 32.7250 -96.8660 244° Southwest 253 291 7,700 2,889 Climbing FlightAware ADS-B
Wed 07:09:36 AM 32.7090 -96.9070 245° Southwest 287 330 8,900 2,684 Climbing FlightAware ADS-B
Wed 07:09:44 AM 32.7070 -96.9190 259° West 288 331 9,400 2,291 Climbing FlightAware ADS-B
Wed 07:10:31 AM 32.7230 -96.9950 284° West 336 387 11,000 2,314 Climbing FlightAware ADS-B
Wed 07:10:54 AM 32.7310 -97.0370 283° West 347 399 12,100 3,045 Climbing FlightAware ADS-B
Wed 07:11:38 AM 32.7470 -97.1210 283° West 364 419 14,400 3,188 Climbing FlightAware ADS-B
Wed 07:11:58 AM 32.7540 -97.1600 282° West 364 419 15,500 3,000 Climbing FlightAware ADS-B
Wed 07:12:54 AM 32.7760 -97.2710 283° West 378 435 18,200 2,851 Climbing FlightAware ADS-B
Wed 07:13:39 AM 32.7940 -97.3610 283° West 387 445 20,300 2,824 Climbing FlightAware ADS-B
Wed 07:14:19 AM 32.8110 -97.4480 283° West 392 451 22,200 2,560 Climbing FlightAware ADS-B
Wed 07:14:54 AM 32.8250 -97.5210 283° West 402 463 23,500 2,069 Climbing FlightAware ADS-B
Wed 07:15:46 AM 32.8470 -97.6350 283° West 417 480 25,200 1,957 Climbing FlightAware ADS-B
Wed 07:16:26 AM 32.8630 -97.7250 282° West 425 489 26,500 1,787 Climbing FlightAware ADS-B
Wed 07:17:20 AM 32.8650 -97.8500 271° West 439 505 28,000 1,653 Climbing FlightAware ADS-B
Wed 07:18:04 AM 32.8650 -97.9530 270° West 448 516 29,200 1,583 Climbing FlightAware ADS-B
Wed 07:18:32 AM 32.8640 -98.0310 269° West 454 522 29,900 1,891 Climbing FlightAware ADS-B
Wed 07:19:36 AM 32.8780 -98.1880 276° West 445 512 32,100 1,962 Climbing FlightAware ADS-B
Wed 07:20:16 AM 32.9110 -98.2770 294° West 443 510 33,300 1,643 Climbing FlightAware ADS-B
Wed 07:21:00 AM 32.9480 -98.3750 294° West 443 510 34,400 1,535 Climbing FlightAware ADS-B
Wed 07:21:42 AM 32.9800 -98.4650 293° West 440 506 35,500 1,902 Climbing FlightAware ADS-B
Wed 07:22:22 AM 33.0140 -98.5560 294° West 425 489 37,000 1,756 Climbing FlightAware ADS-B
Wed 07:23:04 AM 33.0460 -98.6430 294° West 420 483 37,900 857 Climbing FlightAware ADS-B
Wed 07:23:32 AM 33.0690 -98.7050 294° West 430 495 38,000 83 Climbing FlightAware ADS-B
Wed 07:24:16 AM 33.1050 -98.8020 294° West 441 507 38,000  Level FlightAware ADS-B
Wed 07:24:44 AM 33.1270 -98.8630 293° West 434 499 38,000  Level FlightAware ADS-B
Wed 07:25:15 AM 33.1480 -98.9210 293° West 429 494 38,000  Level FlightAware ADS-B
Wed 07:25:57 AM 33.1840 -99.0180 294° West 424 488 38,000  Level FlightAware ADS-B
Wed 07:26:37 AM 33.2160 -99.1070 293° West 417 480 38,000  Level FlightAware ADS-B
Wed 07:27:02 AM 33.2340 -99.1560 294° West 413 475 38,000  Level FlightAware ADS-B
Wed 07:28:02 AM 33.2790 -99.2810 293° West 405 466 38,000  Level FlightAware ADS-B
Wed 07:28:55 AM 33.3150 -99.3820 293° West 401 461 38,000  Level FlightAware ADS-B
Wed 07:29:51 AM 33.3560 -99.4950 294° West 394 453 38,000  Level FlightAware ADS-B
Wed 07:30:37 AM 33.3840 -99.5730 293° West 394 453 38,000  Level FlightAware ADS-B
Wed 07:31:01 AM 33.3980 -99.6140 292° West 394 453 38,000  Level FlightAware ADS-B
Wed 07:31:52 AM 33.4290 -99.7020 293° West 394 453 38,000  Level FlightAware ADS-B
Wed 07:32:15 AM 33.4430 -99.7410 293° West 394 453 38,000  Level FlightAware ADS-B
Wed 07:33:03 AM 33.4720 -99.8230 293° West 394 453 38,000  Level FlightAware ADS-B
Wed 07:33:39 AM 33.4940 -99.8840 293° West 394 453 38,000  Level FlightAware ADS-B
Wed 07:34:14 AM 33.5150 -99.9440 293° West 394 453 38,000  Level FlightAware ADS-B
Wed 07:35:01 AM 33.5440 -100.0250 293° West 394 453 38,000  Level FlightAware ADS-B
Wed 07:35:40 AM 33.5670 -100.0910 293° West 394 453 38,000  Level FlightAware ADS-B
Wed 07:36:29 AM 33.5970 -100.1750 293° West 394 453 38,000  Level FlightAware ADS-B
Wed 07:37:05 AM 33.6190 -100.2370 293° West 394 453 38,000  Level FlightAware ADS-B
Wed 07:37:53 AM 33.6480 -100.3190 293° West 394 453 38,000  Level FlightAware ADS-B
Wed 07:38:30 AM 33.6700 -100.3830 292° West 394 453 38,000  Level FlightAware ADS-B
Wed 07:39:17 AM 33.6990 -100.4630 294° West 394 453 38,000  Level FlightAware ADS-B
Wed 07:40:20 AM 33.7975 -100.7483 294° West 406 467 38,000  Level Albuquerque Center
Wed 07:41:21 AM 33.8447 -100.8875 292° West 406 467 38,000  Level Albuquerque Center
Wed 07:42:21 AM 33.8828 -100.9983 292° West 404 465 38,000  Level Albuquerque Center
Wed 07:43:21 AM 33.9353 -101.1489 293° West 405 466 38,000  Level Albuquerque Center
Wed 07:44:21 AM 33.9769 -101.2733 292° West 403 464 38,000  Level Albuquerque Center
Wed 07:45:22 AM 34.0222 -101.3978 294° West 400 460 38,000  Level Fort Worth Center
Wed 07:46:22 AM 34.0561 -101.5097 290° West 403 464 38,000  Level Fort Worth Center
Wed 07:47:22 AM 34.1036 -101.6497 292° West 403 464 38,000  Level Fort Worth Center
Wed 07:48:22 AM 34.1472 -101.7775 292° West 403 464 38,000  Level Fort Worth Center
Wed 07:49:22 AM 34.1886 -101.9050 291° West 403 464 38,000  Level Fort Worth Center
Wed 07:50:23 AM 34.2314 -102.0328 292° West 409 471 38,000  Level Albuquerque Center
Wed 07:51:23 AM 34.2736 -102.1611 292° West 411 473 38,000  Level Albuquerque Center
Wed 07:52:23 AM 34.3164 -102.2897 292° West 411 473 38,000  Level Albuquerque Center
Wed 07:53:24 AM 34.3583 -102.4167 292° West 408 470 38,000  Level Albuquerque Center
Wed 07:54:24 AM 34.3997 -102.5444 291° West 408 470 38,000  Level Albuquerque Center
Wed 07:55:24 AM 34.4411 -102.6731 291° West 408 470 38,000  Level Albuquerque Center
Wed 07:56:25 AM 34.4836 -102.8011 292° West 409 471 38,000  Level Albuquerque Center
Wed 07:57:25 AM 34.5061 -102.9286 282° West 421 484 38,000  Level Albuquerque Center
Wed 07:58:25 AM 34.5239 -103.0728 279° West 427 491 38,000  Level Albuquerque Center
Wed 07:59:26 AM 34.5422 -103.2172 279° West 429 494 38,000  Level Albuquerque Center
Wed 08:00:26 AM 34.5589 -103.3619 278° West 430 495 38,000  Level Albuquerque Center
Wed 08:01:26 AM 34.5753 -103.5067 278° West 428 493 38,000  Level Albuquerque Center
Wed 08:02:27 AM 34.5978 -103.6508 281° West 429 494 38,000  Level Albuquerque Center
Wed 08:03:27 AM 34.6342 -103.7861 288° West 421 484 38,000  Level Albuquerque Center
Wed 08:04:27 AM 34.6678 -103.9242 287° West 421 484 38,000 -347 Level Albuquerque Center
Wed 08:05:28 AM 34.7017 -104.0644 286° West 425 489 37,300 -843 Descending Albuquerque Center
Wed 08:06:28 AM 34.7367 -104.2083 287° West 435 501 36,300 -650 Descending Albuquerque Center
Wed 08:07:28 AM 34.7703 -104.3481 286° West 428 493 36,000 -149 Descending Albuquerque Center
Wed 08:08:29 AM 34.8022 -104.4797 286° West 408 470 36,000  Level Albuquerque Center
Wed 08:09:29 AM 34.8325 -104.6069 286° West 392 451 36,000  Level Albuquerque Center
Wed 08:10:30 AM 34.8458 -104.7372 277° West 385 443 36,000 -942 Level Albuquerque Center
Wed 08:11:30 AM 34.8569 -104.8533 277° West 399 459 34,100 -2,033 Descending Albuquerque Center
Wed 08:12:31 AM 34.8703 -104.9983 276° West 418 481 31,900 -2,132 Descending Albuquerque Center
Wed 08:13:31 AM 34.8833 -105.1378 277° West 415 478 29,800 -2,033 Descending Albuquerque Center
Wed 08:14:32 AM 34.8944 -105.2725 276° West 402 463 27,800 -1,983 Descending Albuquerque Center
Wed 08:15:32 AM 34.9072 -105.4033 277° West 392 451 25,800 -2,000 Descending Albuquerque Center
Wed 08:16:32 AM 34.9189 -105.5306 276° West 380 437 23,800 -1,934 Descending Albuquerque Center
Wed 08:17:33 AM 34.9275 -105.6556 275° West 370 426 21,900 -1,770 Descending Albuquerque Center
Wed 08:23:12 AM 34.9590 -106.3230 275° West 319 367 12,000 -1,719 Descending FlightAware ADS-B
Wed 08:24:18 AM 34.9580 -106.4410 269° West 310 357 10,300 -1,105 Descending FlightAware ADS-B
Wed 08:25:06 AM 34.9550 -106.5190 267° West 276 318 9,900 -692 Descending FlightAware ADS-B
Wed 08:25:36 AM 34.9460 -106.5620 256° West 263 303 9,400 -1,132 Descending FlightAware ADS-B
Wed 08:25:59 AM 34.9260 -106.5840 222° Southwest 259 298 8,900 -808 Descending FlightAware ADS-B
Wed 08:26:28 AM 34.9030 -106.6140 227° Southwest 244 281 8,700 -305 Descending FlightAware ADS-B
Wed 08:26:58 AM 34.8810 -106.6460 230° Southwest 224 258 8,600 -164 Descending FlightAware ADS-B
Wed 08:27:41 AM 34.8670 -106.6880 248° West 223 257 8,500 -86 Descending FlightAware ADS-B
Wed 08:28:08 AM 34.8580 -106.7150 248° West 223 257 8,500  Level FlightAware ADS-B
Wed 08:28:20 AM 34.8540 -106.7270 248° West 223 257 8,500  Level FlightAware ADS-B
Wed 08:28:43 AM 34.8470 -106.7490 249° West 223 257 8,500  Level FlightAware ADS-B
Wed 08:28:56 AM 34.8420 -106.7620 245° Southwest 223 257 8,500 -1,579 Level FlightAware ADS-B
Wed 08:29:40 AM 34.9633 -106.7022 245° Southwest 199 229 7,000 -1,442 Descending Albuquerque Center
Wed 08:30:40 AM 34.9981 -106.6586 46° Northeast 188 216 6,000 -843 Descending Albuquerque Center
Wed 08:31:41 AM 35.0331 -106.6156 45° Northeast 177 204 5,300 -689 Descending Albuquerque Center

Login

Don't have an account? Register now (free) for customized features, flight alerts, and more!